sensor_id;sensor_type;location;lat;lon;timestamp;temperature;humidity
71672;DHT22;67659;45.554;11.812;2023-06-22T03:50:22;26.10;99.90
71672;DHT22;67659;45.554;11.812;2023-06-22T03:52:48;26.10;99.70
71672;DHT22;67659;45.554;11.812;2023-06-22T03:55:14;26.00;99.90
71672;DHT22;67659;45.554;11.812;2023-06-22T03:57:40;26.00;99.90
71672;DHT22;67659;45.554;11.812;2023-06-22T04:00:06;26.00;99.90
71672;DHT22;67659;45.554;11.812;2023-06-22T04:02:33;26.00;99.90
71672;DHT22;67659;45.554;11.812;2023-06-22T04:04:59;26.00;99.90
71672;DHT22;67659;45.554;11.812;2023-06-22T04:07:25;26.00;99.90
71672;DHT22;67659;45.554;11.812;2023-06-22T04:09:50;25.90;99.90
71672;DHT22;67659;45.554;11.812;2023-06-22T04:12:16;25.80;99.90
71672;DHT22;67659;45.554;11.812;2023-06-22T04:14:42;25.80;99.90
71672;DHT22;67659;45.554;11.812;2023-06-22T04:17:08;25.80;99.90
71672;DHT22;67659;45.554;11.812;2023-06-22T04:19:34;25.70;99.90
71672;DHT22;67659;45.554;11.812;2023-06-22T04:21:59;25.70;99.90
71672;DHT22;67659;45.554;11.812;2023-06-22T04:24:25;25.90;99.90
71672;DHT22;67659;45.554;11.812;2023-06-22T04:26:51;25.90;99.90
71672;DHT22;67659;45.554;11.812;2023-06-22T04:29:21;25.90;99.90
71672;DHT22;67659;45.554;11.812;2023-06-22T04:31:56;25.90;99.90
71672;DHT22;67659;45.554;11.812;2023-06-22T04:34:24;25.90;99.90
71672;DHT22;67659;45.554;11.812;2023-06-22T04:36:52;26.00;99.90
71672;DHT22;67659;45.554;11.812;2023-06-22T04:39:17;25.90;99.90
71672;DHT22;67659;45.554;11.812;2023-06-22T04:41:44;25.80;99.90
71672;DHT22;67659;45.554;11.812;2023-06-22T04:44:14;25.80;99.90
71672;DHT22;67659;45.554;11.812;2023-06-22T04:46:54;26.00;99.90
71672;DHT22;67659;45.554;11.812;2023-06-22T04:49:26;26.10;99.90
71672;DHT22;67659;45.554;11.812;2023-06-22T04:51:59;26.10;99.90
71672;DHT22;67659;45.554;11.812;2023-06-22T04:54:25;26.30;99.90
71672;DHT22;67659;45.554;11.812;2023-06-22T04:57:02;26.30;99.90
71672;DHT22;67659;45.554;11.812;2023-06-22T04:59:29;26.40;99.90
71672;DHT22;67659;45.554;11.812;2023-06-22T05:02:00;26.50;99.90
71672;DHT22;67659;45.554;11.812;2023-06-22T05:04:27;26.60;99.90
71672;DHT22;67659;45.554;11.812;2023-06-22T05:07:01;26.60;99.90
71672;DHT22;67659;45.554;11.812;2023-06-22T05:09:27;26.80;99.90
71672;DHT22;67659;45.554;11.812;2023-06-22T05:11:53;26.80;99.90
71672;DHT22;67659;45.554;11.812;2023-06-22T05:14:19;26.90;99.90
71672;DHT22;67659;45.554;11.812;2023-06-22T05:16:45;27.00;99.90
71672;DHT22;67659;45.554;11.812;2023-06-22T05:19:11;27.10;99.90
71672;DHT22;67659;45.554;11.812;2023-06-22T05:21:38;27.20;99.90
71672;DHT22;67659;45.554;11.812;2023-06-22T05:24:04;27.30;99.90
71672;DHT22;67659;45.554;11.812;2023-06-22T05:26:32;27.30;99.90
71672;DHT22;67659;45.554;11.812;2023-06-22T05:28:59;27.30;99.90
71672;DHT22;67659;45.554;11.812;2023-06-22T05:31:26;27.40;99.90
71672;DHT22;67659;45.554;11.812;2023-06-22T05:33:53;27.50;99.60
71672;DHT22;67659;45.554;11.812;2023-06-22T05:36:20;27.50;99.90
71672;DHT22;67659;45.554;11.812;2023-06-22T05:38:47;27.60;99.80
71672;DHT22;67659;45.554;11.812;2023-06-22T05:41:13;27.60;99.90
71672;DHT22;67659;45.554;11.812;2023-06-22T05:43:40;27.70;99.90
71672;DHT22;67659;45.554;11.812;2023-06-22T05:46:05;27.70;99.90
71672;DHT22;67659;45.554;11.812;2023-06-22T05:48:31;27.70;99.90
71672;DHT22;67659;45.554;11.812;2023-06-22T05:50:57;27.80;99.90
71672;DHT22;67659;45.554;11.812;2023-06-22T05:53:23;27.70;99.90
71672;DHT22;67659;45.554;11.812;2023-06-22T05:55:49;27.80;99.90
71672;DHT22;67659;45.554;11.812;2023-06-22T05:58:15;27.90;99.90
71672;DHT22;67659;45.554;11.812;2023-06-22T06:00:41;28.00;99.90
71672;DHT22;67659;45.554;11.812;2023-06-22T06:03:09;28.10;99.90
71672;DHT22;67659;45.554;11.812;2023-06-22T06:05:36;28.30;99.70
71672;DHT22;67659;45.554;11.812;2023-06-22T06:08:05;28.30;97.80
71672;DHT22;67659;45.554;11.812;2023-06-22T06:10:32;28.30;96.00
71672;DHT22;67659;45.554;11.812;2023-06-22T06:12:58;28.60;95.90
71672;DHT22;67659;45.554;11.812;2023-06-22T06:15:24;28.70;93.50
71672;DHT22;67659;45.554;11.812;2023-06-22T06:17:51;28.80;91.10
71672;DHT22;67659;45.554;11.812;2023-06-22T06:20:22;28.80;92.40
71672;DHT22;67659;45.554;11.812;2023-06-22T06:22:48;28.90;93.30
71672;DHT22;67659;45.554;11.812;2023-06-22T06:25:15;29.00;91.50
71672;DHT22;67659;45.554;11.812;2023-06-22T06:27:42;29.10;89.50
71672;DHT22;67659;45.554;11.812;2023-06-22T06:30:10;29.20;87.00
71672;DHT22;67659;45.554;11.812;2023-06-22T06:32:36;29.40;88.30
71672;DHT22;67659;45.554;11.812;2023-06-22T06:35:02;29.50;88.40
71672;DHT22;67659;45.554;11.812;2023-06-22T06:37:28;29.50;86.50
71672;DHT22;67659;45.554;11.812;2023-06-22T06:39:53;29.50;86.80
71672;DHT22;67659;45.554;11.812;2023-06-22T06:42:19;29.40;87.20
71672;DHT22;67659;45.554;11.812;2023-06-22T06:44:45;29.60;86.40
71672;DHT22;67659;45.554;11.812;2023-06-22T06:47:11;29.60;86.30
71672;DHT22;67659;45.554;11.812;2023-06-22T06:49:37;29.60;86.60
71672;DHT22;67659;45.554;11.812;2023-06-22T06:52:03;29.70;85.40
71672;DHT22;67659;45.554;11.812;2023-06-22T06:54:29;29.70;86.10
71672;DHT22;67659;45.554;11.812;2023-06-22T06:56:55;29.70;86.30
71672;DHT22;67659;45.554;11.812;2023-06-22T06:59:21;29.70;85.80
71672;DHT22;67659;45.554;11.812;2023-06-22T07:01:47;29.80;84.70
71672;DHT22;67659;45.554;11.812;2023-06-22T07:04:14;29.80;84.80
71672;DHT22;67659;45.554;11.812;2023-06-22T07:06:40;29.90;84.50
71672;DHT22;67659;45.554;11.812;2023-06-22T07:09:06;30.10;84.80
71672;DHT22;67659;45.554;11.812;2023-06-22T07:11:32;30.20;84.30
71672;DHT22;67659;45.554;11.812;2023-06-22T07:13:57;30.40;82.90
71672;DHT22;67659;45.554;11.812;2023-06-22T07:16:23;30.50;82.50
71672;DHT22;67659;45.554;11.812;2023-06-22T07:18:51;30.60;82.50
71672;DHT22;67659;45.554;11.812;2023-06-22T07:21:17;30.60;82.10
71672;DHT22;67659;45.554;11.812;2023-06-22T07:23:42;30.70;82.30
71672;DHT22;67659;45.554;11.812;2023-06-22T07:26:08;30.50;82.40
71672;DHT22;67659;45.554;11.812;2023-06-22T07:28:34;30.40;82.40
71672;DHT22;67659;45.554;11.812;2023-06-22T07:31:04;30.40;81.90
71672;DHT22;67659;45.554;11.812;2023-06-22T07:33:29;30.30;81.70
71672;DHT22;67659;45.554;11.812;2023-06-22T07:35:55;30.30;80.20
71672;DHT22;67659;45.554;11.812;2023-06-22T07:38:21;30.40;80.30
71672;DHT22;67659;45.554;11.812;2023-06-22T07:40:47;30.40;80.20
71672;DHT22;67659;45.554;11.812;2023-06-22T07:43:13;30.40;78.40
71672;DHT22;67659;45.554;11.812;2023-06-22T07:45:38;30.70;77.30
71672;DHT22;67659;45.554;11.812;2023-06-22T07:48:06;30.90;78.50
71672;DHT22;67659;45.554;11.812;2023-06-22T07:50:32;31.20;78.10
71672;DHT22;67659;45.554;11.812;2023-06-22T07:52:58;31.20;77.10
71672;DHT22;67659;45.554;11.812;2023-06-22T07:55:24;31.40;75.90
71672;DHT22;67659;45.554;11.812;2023-06-22T07:57:50;31.60;76.50
71672;DHT22;67659;45.554;11.812;2023-06-22T08:00:17;31.60;76.10
71672;DHT22;67659;45.554;11.812;2023-06-22T08:02:45;31.50;75.80
71672;DHT22;67659;45.554;11.812;2023-06-22T08:05:11;31.60;75.70
71672;DHT22;67659;45.554;11.812;2023-06-22T08:07:38;31.50;76.20
71672;DHT22;67659;45.554;11.812;2023-06-22T08:10:05;31.50;76.40
71672;DHT22;67659;45.554;11.812;2023-06-22T08:12:31;31.40;75.90
71672;DHT22;67659;45.554;11.812;2023-06-22T08:14:57;31.50;76.40
71672;DHT22;67659;45.554;11.812;2023-06-22T08:17:24;31.50;77.00
71672;DHT22;67659;45.554;11.812;2023-06-22T08:19:50;31.50;75.20
71672;DHT22;67659;45.554;11.812;2023-06-22T08:22:17;31.60;76.50
71672;DHT22;67659;45.554;11.812;2023-06-22T08:24:43;31.50;75.30
71672;DHT22;67659;45.554;11.812;2023-06-22T08:27:10;31.70;75.90
71672;DHT22;67659;45.554;11.812;2023-06-22T08:29:39;31.80;75.80
71672;DHT22;67659;45.554;11.812;2023-06-22T08:32:05;31.90;74.30
71672;DHT22;67659;45.554;11.812;2023-06-22T08:34:32;32.10;74.60
71672;DHT22;67659;45.554;11.812;2023-06-22T08:36:58;32.20;74.80
71672;DHT22;67659;45.554;11.812;2023-06-22T08:39:23;32.20;75.00
71672;DHT22;67659;45.554;11.812;2023-06-22T08:41:49;32.20;72.00
71672;DHT22;67659;45.554;11.812;2023-06-22T08:44:18;32.10;73.00
71672;DHT22;67659;45.554;11.812;2023-06-22T08:46:44;32.00;75.00
71672;DHT22;67659;45.554;11.812;2023-06-22T08:49:10;32.00;73.50
71672;DHT22;67659;45.554;11.812;2023-06-22T08:51:36;32.00;74.50
71672;DHT22;67659;45.554;11.812;2023-06-22T08:54:02;32.00;74.60
71672;DHT22;67659;45.554;11.812;2023-06-22T08:56:28;32.10;74.60
71672;DHT22;67659;45.554;11.812;2023-06-22T08:58:54;32.10;75.00
71672;DHT22;67659;45.554;11.812;2023-06-22T09:01:20;32.20;73.80
71672;DHT22;67659;45.554;11.812;2023-06-22T09:03:46;32.30;74.70
71672;DHT22;67659;45.554;11.812;2023-06-22T09:06:20;32.30;75.10
71672;DHT22;67659;45.554;11.812;2023-06-22T09:08:47;32.50;74.50
71672;DHT22;67659;45.554;11.812;2023-06-22T09:11:13;32.50;74.60
71672;DHT22;67659;45.554;11.812;2023-06-22T09:13:39;32.60;75.10
71672;DHT22;67659;45.554;11.812;2023-06-22T09:16:05;32.60;75.40
71672;DHT22;67659;45.554;11.812;2023-06-22T09:18:30;32.70;75.30
71672;DHT22;67659;45.554;11.812;2023-06-22T09:20:56;32.70;74.70
71672;DHT22;67659;45.554;11.812;2023-06-22T09:23:22;32.70;75.60
71672;DHT22;67659;45.554;11.812;2023-06-22T09:25:48;32.80;75.50
71672;DHT22;67659;45.554;11.812;2023-06-22T09:28:15;33.00;75.10
71672;DHT22;67659;45.554;11.812;2023-06-22T09:30:42;33.10;74.60
71672;DHT22;67659;45.554;11.812;2023-06-22T09:33:08;33.30;74.70
71672;DHT22;67659;45.554;11.812;2023-06-22T09:35:34;33.50;74.50
71672;DHT22;67659;45.554;11.812;2023-06-22T09:38:00;33.60;74.20
71672;DHT22;67659;45.554;11.812;2023-06-22T09:40:26;33.80;74.70
71672;DHT22;67659;45.554;11.812;2023-06-22T09:42:52;33.70;74.10
71672;DHT22;67659;45.554;11.812;2023-06-22T09:45:17;34.00;73.70
71672;DHT22;67659;45.554;11.812;2023-06-22T09:47:43;34.10;73.20
71672;DHT22;67659;45.554;11.812;2023-06-22T09:50:09;34.30;70.10
71672;DHT22;67659;45.554;11.812;2023-06-22T09:52:35;34.40;72.30
71672;DHT22;67659;45.554;11.812;2023-06-22T09:55:01;34.30;72.80
71672;DHT22;67659;45.554;11.812;2023-06-22T09:57:29;34.40;69.00
71672;DHT22;67659;45.554;11.812;2023-06-22T09:59:55;34.50;71.60
71672;DHT22;67659;45.554;11.812;2023-06-22T10:02:21;34.60;67.20
71672;DHT22;67659;45.554;11.812;2023-06-22T10:04:48;34.70;68.50
71672;DHT22;67659;45.554;11.812;2023-06-22T10:07:14;34.70;68.00
71672;DHT22;67659;45.554;11.812;2023-06-22T10:09:40;34.80;70.00
71672;DHT22;67659;45.554;11.812;2023-06-22T10:12:07;34.80;67.20
71672;DHT22;67659;45.554;11.812;2023-06-22T10:14:33;34.80;67.40
71672;DHT22;67659;45.554;11.812;2023-06-22T10:16:59;34.80;67.90
71672;DHT22;67659;45.554;11.812;2023-06-22T10:19:25;34.70;65.90
71672;DHT22;67659;45.554;11.812;2023-06-22T10:21:50;34.80;67.20
71672;DHT22;67659;45.554;11.812;2023-06-22T10:24:17;34.70;65.50
71672;DHT22;67659;45.554;11.812;2023-06-22T10:26:43;34.70;66.00
71672;DHT22;67659;45.554;11.812;2023-06-22T10:29:09;34.70;65.30
71672;DHT22;67659;45.554;11.812;2023-06-22T10:31:35;34.80;66.70
71672;DHT22;67659;45.554;11.812;2023-06-22T10:34:01;34.70;66.40
71672;DHT22;67659;45.554;11.812;2023-06-22T10:36:27;34.70;68.40
71672;DHT22;67659;45.554;11.812;2023-06-22T10:38:53;34.70;68.20
71672;DHT22;67659;45.554;11.812;2023-06-22T10:41:19;34.70;67.90
71672;DHT22;67659;45.554;11.812;2023-06-22T10:43:45;34.80;67.40
71672;DHT22;67659;45.554;11.812;2023-06-22T10:46:10;34.80;66.00
71672;DHT22;67659;45.554;11.812;2023-06-22T10:48:36;34.90;66.90
71672;DHT22;67659;45.554;11.812;2023-06-22T10:51:02;35.00;68.00
71672;DHT22;67659;45.554;11.812;2023-06-22T10:53:28;34.80;66.10
71672;DHT22;67659;45.554;11.812;2023-06-22T10:55:54;34.90;66.00
71672;DHT22;67659;45.554;11.812;2023-06-22T10:58:20;34.90;67.40
71672;DHT22;67659;45.554;11.812;2023-06-22T11:00:46;35.00;66.50
71672;DHT22;67659;45.554;11.812;2023-06-22T11:03:12;35.00;65.10
71672;DHT22;67659;45.554;11.812;2023-06-22T11:05:40;35.10;66.20
71672;DHT22;67659;45.554;11.812;2023-06-22T11:08:05;34.90;66.10
71672;DHT22;67659;45.554;11.812;2023-06-22T11:10:31;35.10;66.50
71672;DHT22;67659;45.554;11.812;2023-06-22T11:12:59;35.20;66.50
71672;DHT22;67659;45.554;11.812;2023-06-22T11:15:26;35.10;66.00
71672;DHT22;67659;45.554;11.812;2023-06-22T11:17:52;35.10;64.80
71672;DHT22;67659;45.554;11.812;2023-06-22T11:20:18;35.00;66.60
71672;DHT22;67659;45.554;11.812;2023-06-22T11:22:43;35.00;66.00
71672;DHT22;67659;45.554;11.812;2023-06-22T11:25:10;35.00;65.20
71672;DHT22;67659;45.554;11.812;2023-06-22T11:27:37;35.00;66.20
71672;DHT22;67659;45.554;11.812;2023-06-22T11:30:04;35.00;66.20
71672;DHT22;67659;45.554;11.812;2023-06-22T11:32:30;35.10;67.10
71672;DHT22;67659;45.554;11.812;2023-06-22T11:34:56;34.90;67.70
71672;DHT22;67659;45.554;11.812;2023-06-22T11:37:22;34.80;65.00
71672;DHT22;67659;45.554;11.812;2023-06-22T11:39:47;34.80;68.30
71672;DHT22;67659;45.554;11.812;2023-06-22T11:42:14;34.80;66.00
71672;DHT22;67659;45.554;11.812;2023-06-22T11:44:39;34.80;66.10
71672;DHT22;67659;45.554;11.812;2023-06-22T11:47:05;34.90;65.80
71672;DHT22;67659;45.554;11.812;2023-06-22T11:49:32;34.90;66.30
71672;DHT22;67659;45.554;11.812;2023-06-22T11:51:57;34.80;65.70
71672;DHT22;67659;45.554;11.812;2023-06-22T11:54:23;34.80;65.10
71672;DHT22;67659;45.554;11.812;2023-06-22T11:56:49;34.80;65.60
71672;DHT22;67659;45.554;11.812;2023-06-22T11:59:15;34.90;65.70
71672;DHT22;67659;45.554;11.812;2023-06-22T12:01:41;35.00;64.10
71672;DHT22;67659;45.554;11.812;2023-06-22T12:04:07;34.70;62.80
71672;DHT22;67659;45.554;11.812;2023-06-22T12:06:33;34.70;64.10
71672;DHT22;67659;45.554;11.812;2023-06-22T12:09:03;34.90;64.50
71672;DHT22;67659;45.554;11.812;2023-06-22T12:11:31;35.00;65.00
71672;DHT22;67659;45.554;11.812;2023-06-22T12:13:57;35.00;65.70
71672;DHT22;67659;45.554;11.812;2023-06-22T12:16:28;35.10;64.80
71672;DHT22;67659;45.554;11.812;2023-06-22T12:18:54;35.10;66.70
71672;DHT22;67659;45.554;11.812;2023-06-22T12:21:20;35.20;65.20
71672;DHT22;67659;45.554;11.812;2023-06-22T12:23:46;35.00;67.20
71672;DHT22;67659;45.554;11.812;2023-06-22T12:26:12;34.90;67.70
71672;DHT22;67659;45.554;11.812;2023-06-22T12:28:38;34.80;69.50
71672;DHT22;67659;45.554;11.812;2023-06-22T12:31:04;34.70;68.50
71672;DHT22;67659;45.554;11.812;2023-06-22T12:33:30;34.70;69.10
71672;DHT22;67659;45.554;11.812;2023-06-22T12:35:56;34.70;69.30
71672;DHT22;67659;45.554;11.812;2023-06-22T12:38:22;34.60;69.30
71672;DHT22;67659;45.554;11.812;2023-06-22T12:40:49;34.60;70.40
71672;DHT22;67659;45.554;11.812;2023-06-22T12:43:15;34.40;71.20
71672;DHT22;67659;45.554;11.812;2023-06-22T12:45:41;34.40;71.90
71672;DHT22;67659;45.554;11.812;2023-06-22T12:48:07;34.40;72.40
71672;DHT22;67659;45.554;11.812;2023-06-22T12:50:34;34.40;72.60
71672;DHT22;67659;45.554;11.812;2023-06-22T12:53:00;34.50;73.50
71672;DHT22;67659;45.554;11.812;2023-06-22T12:55:28;34.50;73.80
71672;DHT22;67659;45.554;11.812;2023-06-22T12:57:54;34.80;70.20
71672;DHT22;67659;45.554;11.812;2023-06-22T13:00:23;34.80;70.30
71672;DHT22;67659;45.554;11.812;2023-06-22T13:02:49;34.70;69.90
71672;DHT22;67659;45.554;11.812;2023-06-22T13:05:15;34.80;69.80
71672;DHT22;67659;45.554;11.812;2023-06-22T13:07:40;34.80;69.20
71672;DHT22;67659;45.554;11.812;2023-06-22T13:10:08;34.80;69.50
71672;DHT22;67659;45.554;11.812;2023-06-22T13:12:34;34.60;69.90
71672;DHT22;67659;45.554;11.812;2023-06-22T13:15:00;34.70;69.30
71672;DHT22;67659;45.554;11.812;2023-06-22T13:17:26;34.60;68.90
71672;DHT22;67659;45.554;11.812;2023-06-22T13:19:52;34.60;68.60
71672;DHT22;67659;45.554;11.812;2023-06-22T13:22:34;34.50;71.00
71672;DHT22;67659;45.554;11.812;2023-06-22T13:25:06;34.60;68.80
71672;DHT22;67659;45.554;11.812;2023-06-22T13:27:32;34.40;71.40
71672;DHT22;67659;45.554;11.812;2023-06-22T13:29:58;34.30;70.30
71672;DHT22;67659;45.554;11.812;2023-06-22T13:32:24;34.30;70.90
71672;DHT22;67659;45.554;11.812;2023-06-22T13:34:52;34.20;70.40
71672;DHT22;67659;45.554;11.812;2023-06-22T13:37:18;34.30;70.90
71672;DHT22;67659;45.554;11.812;2023-06-22T13:39:44;34.20;71.00
71672;DHT22;67659;45.554;11.812;2023-06-22T13:42:10;34.30;69.50
71672;DHT22;67659;45.554;11.812;2023-06-22T13:44:35;34.30;71.40
71672;DHT22;67659;45.554;11.812;2023-06-22T13:47:01;34.40;70.20
71672;DHT22;67659;45.554;11.812;2023-06-22T13:49:28;34.40;71.30
71672;DHT22;67659;45.554;11.812;2023-06-22T13:51:55;34.50;70.50
71672;DHT22;67659;45.554;11.812;2023-06-22T13:54:24;34.40;71.20
71672;DHT22;67659;45.554;11.812;2023-06-22T13:56:50;34.40;70.20
71672;DHT22;67659;45.554;11.812;2023-06-22T13:59:16;34.20;68.90
71672;DHT22;67659;45.554;11.812;2023-06-22T14:01:42;34.30;69.70
71672;DHT22;67659;45.554;11.812;2023-06-22T14:04:09;34.20;70.00
71672;DHT22;67659;45.554;11.812;2023-06-22T14:06:35;34.20;69.80
71672;DHT22;67659;45.554;11.812;2023-06-22T14:09:01;34.20;69.60
71672;DHT22;67659;45.554;11.812;2023-06-22T14:11:27;34.30;70.10
71672;DHT22;67659;45.554;11.812;2023-06-22T14:13:53;34.20;71.10
71672;DHT22;67659;45.554;11.812;2023-06-22T14:16:19;34.10;70.00
71672;DHT22;67659;45.554;11.812;2023-06-22T14:18:45;34.20;69.90
71672;DHT22;67659;45.554;11.812;2023-06-22T14:21:11;34.20;70.70
71672;DHT22;67659;45.554;11.812;2023-06-22T14:23:36;34.20;70.10
71672;DHT22;67659;45.554;11.812;2023-06-22T14:26:03;34.20;71.70
71672;DHT22;67659;45.554;11.812;2023-06-22T14:28:29;34.30;70.70
71672;DHT22;67659;45.554;11.812;2023-06-22T14:30:55;34.20;69.40
71672;DHT22;67659;45.554;11.812;2023-06-22T14:33:22;34.40;69.60
71672;DHT22;67659;45.554;11.812;2023-06-22T14:35:48;34.20;67.80
71672;DHT22;67659;45.554;11.812;2023-06-22T14:38:14;34.10;68.10
71672;DHT22;67659;45.554;11.812;2023-06-22T14:40:40;34.10;68.80
71672;DHT22;67659;45.554;11.812;2023-06-22T14:43:06;34.10;69.70
71672;DHT22;67659;45.554;11.812;2023-06-22T14:45:32;34.10;69.60
71672;DHT22;67659;45.554;11.812;2023-06-22T14:47:58;34.00;69.20
71672;DHT22;67659;45.554;11.812;2023-06-22T14:50:23;34.10;68.00
71672;DHT22;67659;45.554;11.812;2023-06-22T14:52:50;34.20;68.10
71672;DHT22;67659;45.554;11.812;2023-06-22T14:55:16;34.10;68.10
71672;DHT22;67659;45.554;11.812;2023-06-22T14:57:41;34.10;68.60
71672;DHT22;67659;45.554;11.812;2023-06-22T15:00:08;34.10;67.50
71672;DHT22;67659;45.554;11.812;2023-06-22T15:02:34;34.10;67.20
71672;DHT22;67659;45.554;11.812;2023-06-22T15:05:03;34.10;68.20
71672;DHT22;67659;45.554;11.812;2023-06-22T15:07:29;34.10;68.10
71672;DHT22;67659;45.554;11.812;2023-06-22T15:09:54;34.00;66.80
71672;DHT22;67659;45.554;11.812;2023-06-22T15:12:20;34.10;66.60
71672;DHT22;67659;45.554;11.812;2023-06-22T15:14:46;34.00;65.30
71672;DHT22;67659;45.554;11.812;2023-06-22T15:17:12;34.00;67.00
71672;DHT22;67659;45.554;11.812;2023-06-22T15:19:39;33.90;66.90
71672;DHT22;67659;45.554;11.812;2023-06-22T15:22:06;33.90;66.30
71672;DHT22;67659;45.554;11.812;2023-06-22T15:24:33;34.00;66.30
71672;DHT22;67659;45.554;11.812;2023-06-22T15:27:05;33.90;65.90
71672;DHT22;67659;45.554;11.812;2023-06-22T15:29:31;33.90;65.20
71672;DHT22;67659;45.554;11.812;2023-06-22T15:31:59;33.80;65.20
71672;DHT22;67659;45.554;11.812;2023-06-22T15:34:26;33.80;65.70
71672;DHT22;67659;45.554;11.812;2023-06-22T15:36:51;33.90;66.30
71672;DHT22;67659;45.554;11.812;2023-06-22T15:39:17;33.80;65.50
71672;DHT22;67659;45.554;11.812;2023-06-22T15:41:43;33.80;65.50
71672;DHT22;67659;45.554;11.812;2023-06-22T15:44:10;33.80;65.60
71672;DHT22;67659;45.554;11.812;2023-06-22T15:46:36;33.80;65.20
71672;DHT22;67659;45.554;11.812;2023-06-22T15:49:02;33.80;65.90
71672;DHT22;67659;45.554;11.812;2023-06-22T15:51:28;33.70;65.70
71672;DHT22;67659;45.554;11.812;2023-06-22T15:53:54;33.70;66.00
71672;DHT22;67659;45.554;11.812;2023-06-22T15:56:21;33.60;65.40
71672;DHT22;67659;45.554;11.812;2023-06-22T15:58:48;33.60;66.50
71672;DHT22;67659;45.554;11.812;2023-06-22T16:01:14;33.60;66.30
71672;DHT22;67659;45.554;11.812;2023-06-22T16:03:40;33.60;66.60
71672;DHT22;67659;45.554;11.812;2023-06-22T16:06:06;33.60;67.60
71672;DHT22;67659;45.554;11.812;2023-06-22T16:08:32;33.60;67.50
71672;DHT22;67659;45.554;11.812;2023-06-22T16:10:59;33.60;67.10
71672;DHT22;67659;45.554;11.812;2023-06-22T16:13:25;33.50;66.70
71672;DHT22;67659;45.554;11.812;2023-06-22T16:15:51;33.60;67.20
71672;DHT22;67659;45.554;11.812;2023-06-22T16:18:17;33.50;66.90
71672;DHT22;67659;45.554;11.812;2023-06-22T16:20:43;33.50;67.00
71672;DHT22;67659;45.554;11.812;2023-06-22T16:23:11;33.40;68.30
71672;DHT22;67659;45.554;11.812;2023-06-22T16:25:37;33.40;67.00
71672;DHT22;67659;45.554;11.812;2023-06-22T16:28:03;33.40;67.00
71672;DHT22;67659;45.554;11.812;2023-06-22T16:30:29;33.40;67.70
71672;DHT22;67659;45.554;11.812;2023-06-22T16:32:56;33.40;68.00
71672;DHT22;67659;45.554;11.812;2023-06-22T16:35:25;33.40;67.70
71672;DHT22;67659;45.554;11.812;2023-06-22T16:37:54;33.40;68.30
71672;DHT22;67659;45.554;11.812;2023-06-22T16:40:21;33.40;68.30
71672;DHT22;67659;45.554;11.812;2023-06-22T16:42:47;33.40;67.50
71672;DHT22;67659;45.554;11.812;2023-06-22T16:45:15;33.40;67.50
71672;DHT22;67659;45.554;11.812;2023-06-22T16:47:46;33.40;68.40
71672;DHT22;67659;45.554;11.812;2023-06-22T16:50:12;33.40;68.60
71672;DHT22;67659;45.554;11.812;2023-06-22T16:52:38;33.40;68.90
71672;DHT22;67659;45.554;11.812;2023-06-22T16:55:06;33.20;69.40
71672;DHT22;67659;45.554;11.812;2023-06-22T16:57:33;33.30;70.30
71672;DHT22;67659;45.554;11.812;2023-06-22T16:59:59;33.00;70.20
71672;DHT22;67659;45.554;11.812;2023-06-22T17:02:26;33.10;71.10
71672;DHT22;67659;45.554;11.812;2023-06-22T17:04:53;33.10;70.80
71672;DHT22;67659;45.554;11.812;2023-06-22T17:07:20;33.10;71.00
71672;DHT22;67659;45.554;11.812;2023-06-22T17:09:47;33.00;70.40
71672;DHT22;67659;45.554;11.812;2023-06-22T17:12:15;33.10;70.90
71672;DHT22;67659;45.554;11.812;2023-06-22T17:14:41;33.10;71.10
71672;DHT22;67659;45.554;11.812;2023-06-22T17:17:16;33.10;70.80
71672;DHT22;67659;45.554;11.812;2023-06-22T17:19:43;33.00;71.70
71672;DHT22;67659;45.554;11.812;2023-06-22T17:22:08;33.00;71.30
71672;DHT22;67659;45.554;11.812;2023-06-22T17:24:36;32.90;71.10
71672;DHT22;67659;45.554;11.812;2023-06-22T17:27:02;32.80;70.60
71672;DHT22;67659;45.554;11.812;2023-06-22T17:29:29;32.80;71.20
71672;DHT22;67659;45.554;11.812;2023-06-22T17:31:57;32.90;71.40
71672;DHT22;67659;45.554;11.812;2023-06-22T17:34:27;32.80;70.50
71672;DHT22;67659;45.554;11.812;2023-06-22T17:36:55;32.80;70.20
71672;DHT22;67659;45.554;11.812;2023-06-22T17:39:22;32.80;71.10
71672;DHT22;67659;45.554;11.812;2023-06-22T17:41:49;32.80;71.50
71672;DHT22;67659;45.554;11.812;2023-06-22T17:46:54;32.60;71.40
71672;DHT22;67659;45.554;11.812;2023-06-22T17:49:20;32.60;70.80
71672;DHT22;67659;45.554;11.812;2023-06-22T17:51:50;32.60;70.80
71672;DHT22;67659;45.554;11.812;2023-06-22T17:54:16;32.60;69.00
71672;DHT22;67659;45.554;11.812;2023-06-22T17:56:41;32.60;69.30
71672;DHT22;67659;45.554;11.812;2023-06-22T17:59:13;32.50;69.10
71672;DHT22;67659;45.554;11.812;2023-06-22T18:01:38;32.60;69.10
71672;DHT22;67659;45.554;11.812;2023-06-22T18:04:09;32.50;69.10
71672;DHT22;67659;45.554;11.812;2023-06-22T18:06:45;32.40;70.20
71672;DHT22;67659;45.554;11.812;2023-06-22T18:09:13;32.30;69.70
71672;DHT22;67659;45.554;11.812;2023-06-22T18:11:46;32.20;70.50
71672;DHT22;67659;45.554;11.812;2023-06-22T18:14:17;32.00;68.40
71672;DHT22;67659;45.554;11.812;2023-06-22T18:16:46;32.10;68.40
71672;DHT22;67659;45.554;11.812;2023-06-22T18:19:13;32.20;67.30
71672;DHT22;67659;45.554;11.812;2023-06-22T18:21:40;32.30;68.80
71672;DHT22;67659;45.554;11.812;2023-06-22T18:24:06;32.30;68.20
71672;DHT22;67659;45.554;11.812;2023-06-22T18:26:32;32.30;67.50
71672;DHT22;67659;45.554;11.812;2023-06-22T18:28:58;32.40;68.60
71672;DHT22;67659;45.554;11.812;2023-06-22T18:31:25;32.30;67.60
71672;DHT22;67659;45.554;11.812;2023-06-22T18:33:53;32.30;68.00
71672;DHT22;67659;45.554;11.812;2023-06-22T18:36:25;32.20;67.00
71672;DHT22;67659;45.554;11.812;2023-06-22T18:38:52;32.20;67.60
71672;DHT22;67659;45.554;11.812;2023-06-22T18:41:42;32.20;68.10
71672;DHT22;67659;45.554;11.812;2023-06-22T18:44:28;32.10;68.80
71672;DHT22;67659;45.554;11.812;2023-06-22T18:46:58;32.00;67.30
71672;DHT22;67659;45.554;11.812;2023-06-22T18:49:29;31.80;70.70
71672;DHT22;67659;45.554;11.812;2023-06-22T18:54:29;31.70;71.40
71672;DHT22;67659;45.554;11.812;2023-06-22T18:56:57;31.80;71.10
71672;DHT22;67659;45.554;11.812;2023-06-22T19:02:11;31.60;71.70
71672;DHT22;67659;45.554;11.812;2023-06-22T19:04:38;31.40;71.60
71672;DHT22;67659;45.554;11.812;2023-06-22T19:07:06;31.40;72.70
71672;DHT22;67659;45.554;11.812;2023-06-22T19:09:34;31.40;73.10